Terminal Aerodrome Forecast
Issued by NWS

Home | Current Version | Previous Version | Text Only | Print | Product List | Glossary On
Versions: 1 2 3 4 5 6 7 8 9 10 11 12 13 14 15 16 17 18 19 20 21 22 23 24 25 26 27 28 29 30 31 32 33 34 35 36 37 38 39 40
000
FTUS44 KHGX 140534
TAFCXO
TAF
KCXO 140534Z 1406/1506 14007KT P6SM BKN015 OVC025
     FM141400 17008KT P6SM BKN025 OVC035
     FM141800 17012G22KT P6SM BKN035
     FM142300 15008KT P6SM BKN035
     FM150500 15005KT P6SM SCT015 BKN025=

USA.gov is the U.S. government's official web portal to all federal, state and local government web resources and services.